Time;durP1;ratioP1;P1;durP2;ratioP2;P2;SDS_P1;SDS_P2;PMS_P1;PMS_P2;Temp;Humidity;BMP_temperature;BMP_pressure;BME280_temperature;BME280_humidity;BME280_pressure;Samples;Min_cycle;Max_cycle;Signal;HPM_P1;HPM_P2
2022/10/27 00:00:48;;;;;;;38.05;23.77;;;27.10;99.90;;;;;;5016841;28;20026;-67
2022/10/27 00:03:18;;;;;;;48.00;26.75;;;27.10;99.90;;;;;;5034687;28;20049;-65
2022/10/27 00:05:45;;;;;;;43.67;26.55;;;27.10;99.90;;;;;;5034982;28;20029;-64
2022/10/27 00:08:17;;;;;;;42.78;24.88;;;27.10;99.90;;;;;;5034524;28;20021;-66
2022/10/27 00:10:44;;;;;;;37.38;22.38;;;27.10;99.90;;;;;;5034668;28;20025;-65
2022/10/27 00:13:12;;;;;;;30.52;22.45;;;27.10;99.90;;;;;;5034482;28;20536;-66
2022/10/27 00:15:39;;;;;;;39.90;23.08;;;27.10;99.90;;;;;;5034440;28;20092;-65
2022/10/27 00:18:11;;;;;;;42.90;23.05;;;27.10;99.90;;;;;;5034466;28;20033;-65
2022/10/27 00:20:37;;;;;;;42.95;26.15;;;27.10;99.90;;;;;;5029375;28;20073;-67
2022/10/27 00:23:04;;;;;;;34.17;21.73;;;27.10;99.90;;;;;;5004737;28;20047;-64
2022/10/27 00:25:30;;;;;;;31.27;21.33;;;27.10;99.90;;;;;;4994931;28;20073;-64
2022/10/27 00:27:57;;;;;;;27.55;19.00;;;27.10;99.90;;;;;;4994853;28;20029;-65
2022/10/27 00:30:24;;;;;;;37.92;23.42;;;27.10;99.90;;;;;;4994779;28;20022;-65
2022/10/27 00:32:50;;;;;;;40.50;22.75;;;27.30;99.90;;;;;;4994783;28;20064;-63
2022/10/27 00:35:17;;;;;;;42.75;25.33;;;27.30;99.90;;;;;;4994806;28;20029;-64
2022/10/27 00:37:43;;;;;;;39.33;25.05;;;27.20;99.90;;;;;;4994674;28;20105;-63
2022/10/27 00:40:11;;;;;;;34.53;23.33;;;27.20;99.90;;;;;;4994498;28;20042;-63
2022/10/27 00:42:38;;;;;;;37.97;25.02;;;27.30;99.90;;;;;;4994860;28;20089;-58
2022/10/27 00:45:04;;;;;;;46.65;27.58;;;27.30;99.90;;;;;;4994477;28;20027;-62
2022/10/27 00:47:34;;;;;;;44.33;30.33;;;27.30;99.90;;;;;;4994709;28;20019;-63
2022/10/27 00:50:08;;;;;;;53.75;31.98;;;27.30;99.90;;;;;;4994520;28;20025;-62
2022/10/27 00:52:42;;;;;;;50.53;33.70;;;27.30;99.90;;;;;;4994381;28;20463;-63
2022/10/27 00:55:21;;;;;;;55.78;32.72;;;27.30;99.90;;;;;;4994443;28;20022;-63
2022/10/27 00:57:53;;;;;;;54.97;33.00;;;27.40;99.90;;;;;;4994451;28;20580;-63
2022/10/27 01:00:19;;;;;;;45.75;30.13;;;27.40;99.90;;;;;;4994272;28;20414;-62
2022/10/27 01:02:47;;;;;;;44.55;26.63;;;27.50;99.90;;;;;;4994258;28;20035;-62
2022/10/27 01:05:25;;;;;;;45.28;28.67;;;27.50;99.90;;;;;;4994203;28;20041;-63
2022/10/27 01:07:56;;;;;;;37.22;24.83;;;27.60;99.90;;;;;;4994231;28;20023;-63
2022/10/27 01:10:24;;;;;;;36.38;24.13;;;27.70;99.90;;;;;;4994451;28;20109;-64
2022/10/27 01:12:51;;;;;;;32.55;22.00;;;27.70;99.90;;;;;;4994191;28;20476;-64
2022/10/27 01:15:18;;;;;;;33.60;21.70;;;27.80;99.90;;;;;;4994145;28;20486;-64
2022/10/27 01:18:05;;;;;;;34.75;20.45;;;27.90;99.90;;;;;;5001299;28;20022;-63
2022/10/27 01:20:34;;;;;;;26.17;17.42;;;27.90;99.90;;;;;;4993556;28;20033;-64
2022/10/27 01:23:09;;;;;;;28.77;16.42;;;28.00;99.90;;;;;;5008370;28;20018;-63
2022/10/27 01:25:56;;;;;;;30.38;17.50;;;28.00;99.90;;;;;;5013590;28;20424;-64
2022/10/27 01:28:34;;;;;;;28.92;17.08;;;28.10;99.90;;;;;;5013628;28;20549;-65
2022/10/27 01:31:05;;;;;;;25.58;16.10;;;28.10;99.90;;;;;;5013300;28;20033;-63
2022/10/27 01:33:38;;;;;;;28.37;14.43;;;28.20;99.90;;;;;;5013264;28;20034;-64
2022/10/27 01:36:14;;;;;;;24.15;15.95;;;28.20;99.90;;;;;;5013494;28;20037;-64
2022/10/27 01:38:48;;;;;;;35.10;16.30;;;28.20;99.90;;;;;;5013311;28;20029;-64
2022/10/27 01:41:21;;;;;;;28.95;16.08;;;28.30;99.90;;;;;;5013562;28;20386;-63
2022/10/27 01:43:51;;;;;;;23.20;13.20;;;28.50;99.90;;;;;;5013487;28;20109;-63
2022/10/27 01:46:19;;;;;;;28.02;15.32;;;28.60;99.90;;;;;;5013559;28;20044;-64
2022/10/27 01:48:47;;;;;;;25.52;15.45;;;28.60;99.90;;;;;;5013379;28;20022;-63
2022/10/27 01:51:14;;;;;;;22.42;14.90;;;28.70;99.90;;;;;;5013249;28;20022;-63
2022/10/27 01:53:45;;;;;;;27.35;14.63;;;28.70;99.90;;;;;;5013380;28;20025;-62
2022/10/27 01:56:45;;;;;;;25.83;16.45;;;28.70;99.90;;;;;;5013390;28;20368;-65
2022/10/27 01:59:31;;;;;;;26.48;17.20;;;28.80;99.90;;;;;;5013453;28;20030;-65
2022/10/27 02:02:33;;;;;;;29.50;17.17;;;28.80;99.90;;;;;;5013022;28;20080;-63
2022/10/27 02:05:13;;;;;;;31.98;18.67;;;28.90;99.90;;;;;;5008130;28;20022;-64
2022/10/27 02:07:59;;;;;;;30.70;18.73;;;29.00;99.90;;;;;;4997481;28;20023;-66
2022/10/27 02:10:38;;;;;;;38.75;21.13;;;29.00;99.90;;;;;;4997471;28;20052;-63
2022/10/27 02:13:04;;;;;;;34.45;20.48;;;29.00;99.90;;;;;;4997330;28;20480;-64
2022/10/27 02:15:38;;;;;;;109.10;81.10;;;29.10;99.90;;;;;;4997364;28;20109;-59
2022/10/27 02:18:09;;;;;;;34.78;20.92;;;29.10;99.90;;;;;;4997344;28;20041;-65
2022/10/27 02:20:42;;;;;;;35.65;23.92;;;29.10;99.90;;;;;;4997075;28;20041;-64
2022/10/27 02:23:14;;;;;;;43.72;26.40;;;29.20;99.90;;;;;;4995434;28;20026;-66
2022/10/27 02:26:03;;;;;;;29.45;18.35;;;29.30;99.90;;;;;;4995260;28;20498;-66
2022/10/27 02:28:46;;;;;;;31.30;19.27;;;29.20;99.90;;;;;;4995246;28;20474;-65
2022/10/27 02:31:16;;;;;;;62.80;43.10;;;29.30;99.90;;;;;;4995588;28;20049;-65
2022/10/27 02:33:43;;;;;;;27.70;17.25;;;29.40;99.90;;;;;;4996587;28;20027;-69
2022/10/27 02:36:10;;;;;;;28.85;14.45;;;29.50;99.90;;;;;;4994250;28;20030;-66
2022/10/27 02:38:36;;;;;;;50.58;38.15;;;29.80;99.90;;;;;;5001863;28;20026;-65
2022/10/27 02:41:03;;;;;;;67.13;40.78;;;29.90;99.90;;;;;;5016583;28;20034;-60
2022/10/27 02:43:29;;;;;;;39.50;22.58;;;30.00;99.90;;;;;;5016574;28;20013;-60
2022/10/27 02:45:56;;;;;;;31.52;18.15;;;30.20;99.90;;;;;;5016420;28;20517;-64
2022/10/27 02:48:22;;;;;;;40.78;19.17;;;30.30;99.90;;;;;;5016427;28;20026;-64
2022/10/27 02:50:49;;;;;;;23.85;14.30;;;30.20;99.90;;;;;;5016653;28;20026;-65
2022/10/27 02:53:15;;;;;;;28.92;18.80;;;30.10;99.90;;;;;;5016248;28;20483;-64
2022/10/27 02:55:42;;;;;;;46.70;30.38;;;30.00;99.90;;;;;;5016298;28;20036;-65
2022/10/27 02:58:08;;;;;;;28.38;15.32;;;30.00;99.90;;;;;;5016297;28;20544;-65
2022/10/27 03:00:35;;;;;;;33.53;16.90;;;30.30;99.90;;;;;;5016119;28;20033;-68
2022/10/27 03:03:02;;;;;;;33.45;17.95;;;30.30;99.90;;;;;;5016090;28;20037;-64
2022/10/27 03:05:29;;;;;;;27.17;15.30;;;30.20;99.90;;;;;;5016104;28;20026;-67
2022/10/27 03:07:55;;;;;;;31.45;15.77;;;30.20;99.90;;;;;;5016051;28;20033;-64
2022/10/27 03:10:22;;;;;;;32.10;16.08;;;30.40;99.90;;;;;;5015652;28;20483;-65
2022/10/27 03:12:48;;;;;;;29.95;15.07;;;30.40;99.90;;;;;;5016053;28;20033;-64
2022/10/27 03:15:15;;;;;;;26.00;13.50;;;30.20;99.90;;;;;;5015921;28;20026;-63
2022/10/27 03:17:44;;;;;;;37.42;14.98;;;30.20;99.90;;;;;;5015655;28;20088;-63
2022/10/27 03:20:12;;;;;;;24.05;12.68;;;30.30;99.90;;;;;;5015786;28;20037;-64
2022/10/27 03:22:39;;;;;;;21.65;12.43;;;30.30;99.90;;;;;;5015814;28;20026;-63
2022/10/27 03:25:06;;;;;;;28.92;12.63;;;30.30;99.90;;;;;;5015655;28;20091;-63
2022/10/27 03:27:33;;;;;;;23.33;13.07;;;30.20;99.90;;;;;;5013257;28;20425;-63
2022/10/27 03:29:59;;;;;;;29.95;13.80;;;30.20;99.90;;;;;;5004871;28;20035;-64
2022/10/27 03:32:26;;;;;;;27.90;13.77;;;30.20;99.90;;;;;;4995929;28;20499;-64
2022/10/27 03:34:52;;;;;;;21.67;12.68;;;30.30;99.90;;;;;;4996132;28;20019;-64
2022/10/27 03:37:19;;;;;;;21.33;13.57;;;30.20;99.90;;;;;;4995899;28;20029;-64
2022/10/27 03:39:45;;;;;;;18.55;12.18;;;30.20;99.90;;;;;;4995688;28;20507;-64
2022/10/27 03:42:12;;;;;;;30.98;14.48;;;30.30;99.90;;;;;;4995742;28;20129;-64
2022/10/27 03:44:39;;;;;;;29.52;17.60;;;30.50;99.90;;;;;;4995939;28;20042;-64
2022/10/27 03:47:05;;;;;;;22.77;13.77;;;30.50;99.90;;;;;;4995579;28;20023;-64
2022/10/27 03:49:32;;;;;;;21.60;14.52;;;30.50;99.90;;;;;;4995796;28;20046;-64
2022/10/27 03:51:58;;;;;;;21.50;11.43;;;30.60;99.90;;;;;;4995433;28;20027;-64
2022/10/27 03:54:28;;;;;;;22.95;10.93;;;30.80;99.90;;;;;;4995460;28;20456;-64
2022/10/27 03:56:54;;;;;;;29.48;16.40;;;30.80;99.90;;;;;;4995603;28;20439;-63
2022/10/27 03:59:21;;;;;;;41.50;31.02;;;30.80;99.90;;;;;;4995352;28;20034;-63
2022/10/27 04:01:48;;;;;;;22.35;15.48;;;30.80;99.90;;;;;;5002797;28;20030;-63
2022/10/27 04:04:15;;;;;;;19.75;13.45;;;30.70;99.90;;;;;;4998656;28;20114;-64
2022/10/27 04:06:42;;;;;;;19.35;11.48;;;30.80;99.90;;;;;;4994823;28;20392;-65
2022/10/27 04:09:08;;;;;;;68.28;54.97;;;30.80;99.90;;;;;;4995339;28;20538;-64
2022/10/27 04:11:35;;;;;;;32.45;23.35;;;30.80;99.90;;;;;;4995188;28;20070;-63
2022/10/27 04:14:02;;;;;;;19.55;14.00;;;30.80;99.90;;;;;;4995343;28;20033;-64
2022/10/27 04:16:29;;;;;;;18.67;11.82;;;30.90;99.90;;;;;;4994992;28;20026;-63
2022/10/27 04:18:55;;;;;;;15.45;11.50;;;30.90;99.90;;;;;;4995274;28;20030;-66
2022/10/27 04:21:22;;;;;;;19.55;11.75;;;31.00;99.90;;;;;;4994953;28;20089;-64
2022/10/27 04:23:48;;;;;;;20.58;11.02;;;31.00;99.90;;;;;;4994846;28;20081;-64
2022/10/27 04:26:15;;;;;;;16.52;11.13;;;31.00;99.90;;;;;;4994642;28;20140;-66
2022/10/27 04:28:41;;;;;;;20.50;11.32;;;30.90;99.90;;;;;;4995025;28;20046;-64
2022/10/27 04:31:08;;;;;;;19.15;12.57;;;30.80;99.90;;;;;;4994758;28;20493;-64
2022/10/27 04:33:34;;;;;;;21.17;10.52;;;31.00;99.90;;;;;;4994769;28;20066;-64
2022/10/27 04:36:01;;;;;;;17.02;9.77;;;31.00;99.90;;;;;;4994831;28;20026;-63
2022/10/27 04:38:28;;;;;;;18.75;9.13;;;31.10;99.90;;;;;;4994460;28;20056;-65
2022/10/27 04:40:54;;;;;;;15.65;9.73;;;31.30;99.90;;;;;;4994277;28;20050;-64
2022/10/27 04:43:21;;;;;;;14.40;9.10;;;31.40;99.90;;;;;;4994836;28;20029;-64
2022/10/27 04:45:47;;;;;;;16.83;9.35;;;31.70;99.90;;;;;;4994558;28;20065;-63
2022/10/27 04:48:14;;;;;;;13.07;8.23;;;31.70;99.90;;;;;;4994516;28;20534;-64
2022/10/27 04:50:40;;;;;;;20.40;10.85;;;31.70;99.90;;;;;;4994540;28;20403;-63
2022/10/27 04:53:07;;;;;;;17.08;10.00;;;31.80;99.90;;;;;;4994421;28;20034;-64
2022/10/27 04:55:34;;;;;;;13.25;8.25;;;31.80;99.90;;;;;;4994294;28;20555;-62
2022/10/27 04:58:00;;;;;;;18.92;10.00;;;31.80;99.90;;;;;;4994355;28;20030;-63
2022/10/27 05:00:27;;;;;;;20.27;8.90;;;31.90;99.90;;;;;;4994292;28;20026;-63
2022/10/27 05:02:58;;;;;;;17.90;8.23;;;32.20;99.90;;;;;;4994233;28;20029;-63
2022/10/27 05:05:27;;;;;;;25.55;11.60;;;32.00;99.90;;;;;;4994609;28;20030;-62
2022/10/27 05:07:56;;;;;;;15.10;11.75;;;32.00;99.90;;;;;;4994355;28;20050;-63
2022/10/27 05:10:24;;;;;;;13.50;8.50;;;31.90;99.90;;;;;;4994617;28;20038;-62
2022/10/27 05:12:50;;;;;;;14.63;8.43;;;31.90;99.90;;;;;;4994202;28;20042;-63
2022/10/27 05:15:17;;;;;;;17.67;7.90;;;32.00;99.90;;;;;;4994136;28;20488;-63
2022/10/27 05:17:43;;;;;;;13.52;6.82;;;31.90;99.90;;;;;;4994358;28;20027;-62
2022/10/27 05:20:10;;;;;;;11.77;6.85;;;31.80;99.90;;;;;;4993980;28;20133;-63
2022/10/27 05:22:38;;;;;;;18.58;10.45;;;31.80;99.90;;;;;;4994050;28;20026;-63
2022/10/27 05:25:06;;;;;;;17.98;11.40;;;32.00;99.90;;;;;;4994218;28;20027;-63
2022/10/27 05:27:33;;;;;;;15.35;9.48;;;32.00;99.90;;;;;;4994031;28;20046;-62
2022/10/27 05:29:59;;;;;;;12.93;8.50;;;32.00;99.90;;;;;;4993927;28;20022;-62
2022/10/27 05:32:26;;;;;;;18.05;8.23;;;32.00;99.90;;;;;;4993869;28;20141;-63
2022/10/27 05:34:53;;;;;;;13.40;6.18;;;32.00;99.90;;;;;;4994043;28;20049;-63
2022/10/27 05:37:19;;;;;;;15.77;7.25;;;31.90;99.90;;;;;;5003044;28;20029;-62
2022/10/27 05:39:46;;;;;;;14.38;7.63;;;31.90;99.90;;;;;;5012700;28;20065;-62
2022/10/27 05:42:12;;;;;;;10.05;7.40;;;31.90;99.90;;;;;;4998008;28;20050;-60
2022/10/27 05:44:39;;;;;;;15.30;6.72;;;31.80;99.90;;;;;;4993976;28;20065;-60
2022/10/27 05:47:05;;;;;;;7.82;6.05;;;31.90;99.90;;;;;;4993742;28;20026;-60
2022/10/27 05:49:32;;;;;;;10.90;7.00;;;31.80;99.90;;;;;;4994097;28;20105;-61
2022/10/27 05:51:58;;;;;;;31.25;19.38;;;31.90;99.90;;;;;;4993882;28;20030;-61
2022/10/27 05:54:25;;;;;;;32.47;23.33;;;31.90;99.90;;;;;;4993671;28;20068;-61
2022/10/27 05:56:51;;;;;;;43.92;25.55;;;31.80;99.90;;;;;;5010571;28;20034;-62
2022/10/27 05:59:19;;;;;;;48.72;25.63;;;31.80;99.90;;;;;;5012413;28;20022;-61
2022/10/27 06:01:45;;;;;;;40.28;25.55;;;31.80;99.90;;;;;;5012137;28;20034;-61
2022/10/27 06:04:12;;;;;;;45.28;28.42;;;31.70;99.90;;;;;;5009600;28;20534;-62
2022/10/27 06:06:38;;;;;;;51.97;30.23;;;31.70;99.90;;;;;;5013031;28;20030;-62
2022/10/27 06:09:05;;;;;;;60.72;35.70;;;31.70;99.90;;;;;;5013187;28;20097;-62
2022/10/27 06:11:31;;;;;;;53.33;37.10;;;31.70;99.90;;;;;;5008269;28;20089;-63
2022/10/27 06:13:58;;;;;;;44.33;27.70;;;31.60;99.90;;;;;;5002725;28;20030;-57
2022/10/27 06:16:24;;;;;;;33.95;22.77;;;31.50;99.90;;;;;;4993922;28;20483;-62
2022/10/27 06:18:52;;;;;;;31.70;24.30;;;31.40;99.90;;;;;;4993391;28;20022;-63
2022/10/27 06:21:21;;;;;;;47.80;32.53;;;31.40;99.90;;;;;;4993573;28;20113;-62
2022/10/27 06:23:48;;;;;;;45.90;29.58;;;31.50;99.90;;;;;;4993304;28;20045;-62
2022/10/27 06:26:15;;;;;;;39.97;25.77;;;31.50;99.90;;;;;;4993431;28;20368;-62
2022/10/27 06:28:42;;;;;;;40.67;27.92;;;31.50;99.90;;;;;;4993708;28;20053;-63
2022/10/27 06:31:08;;;;;;;40.45;26.27;;;31.50;99.90;;;;;;4993175;28;20399;-59
2022/10/27 06:33:35;;;;;;;32.78;24.52;;;31.60;99.90;;;;;;4993536;28;20077;-62
2022/10/27 06:36:01;;;;;;;40.05;26.63;;;31.60;99.90;;;;;;5012980;28;20037;-62
2022/10/27 06:38:28;;;;;;;39.42;26.75;;;31.60;99.90;;;;;;5032501;28;20033;-64
2022/10/27 06:40:54;;;;;;;39.70;26.98;;;31.50;99.90;;;;;;5028961;28;20286;-62
2022/10/27 06:43:21;;;;;;;42.25;27.35;;;31.50;99.90;;;;;;5002684;28;20030;-58
2022/10/27 06:45:48;;;;;;;37.80;28.92;;;31.50;99.90;;;;;;5013105;28;20025;-65
2022/10/27 06:48:15;;;;;;;30.83;25.45;;;31.50;99.90;;;;;;5012777;28;20025;-59
2022/10/27 06:50:42;;;;;;;33.75;25.15;;;31.60;99.90;;;;;;5015965;28;20026;-62
2022/10/27 06:53:08;;;;;;;31.98;23.65;;;31.60;99.90;;;;;;5016407;28;20493;-63
2022/10/27 06:55:35;;;;;;;38.97;22.90;;;31.70;99.90;;;;;;5016036;28;20121;-63
2022/10/27 06:58:02;;;;;;;29.35;22.98;;;31.70;99.90;;;;;;5016299;28;20079;-61
2022/10/27 07:00:29;;;;;;;29.55;21.98;;;31.80;99.90;;;;;;5016187;28;20029;-63
2022/10/27 07:02:55;;;;;;;28.75;21.77;;;31.80;99.90;;;;;;5016234;28;20467;-62
2022/10/27 07:05:22;;;;;;;26.65;20.85;;;31.90;99.90;;;;;;5015931;28;20034;-63
2022/10/27 07:07:51;;;;;;;28.20;22.85;;;31.90;99.90;;;;;;5016398;28;20049;-62
2022/10/27 07:10:19;;;;;;;29.30;20.60;;;32.00;99.90;;;;;;5016604;28;20018;-63
2022/10/27 07:12:58;;;;;;;29.25;21.15;;;32.20;99.90;;;;;;5010488;28;20028;-62
2022/10/27 07:15:30;;;;;;;31.10;20.33;;;32.10;99.90;;;;;;5014909;28;20418;-64
2022/10/27 07:17:57;;;;;;;;;;;32.20;99.90;;;;;;5016816;28;20030;-64
2022/10/27 07:20:24;;;;;;;23.27;16.98;;;32.30;99.90;;;;;;5016268;28;19913;-64
2022/10/27 07:22:50;;;;;;;26.50;18.60;;;32.30;99.90;;;;;;5015878;28;20076;-62
2022/10/27 07:25:17;;;;;;;22.10;16.27;;;32.10;99.90;;;;;;5016238;28;20387;-61
2022/10/27 07:27:52;;;;;;;24.08;16.33;;;32.10;99.90;;;;;;5016123;28;20038;-59
2022/10/27 07:30:20;;;;;;;16.75;14.07;;;32.20;99.90;;;;;;5015614;28;20050;-64
2022/10/27 07:32:47;;;;;;;19.92;12.50;;;32.10;99.90;;;;;;5015856;28;20042;-62
2022/10/27 07:35:15;;;;;;;15.30;11.48;;;32.10;99.90;;;;;;5015970;28;20109;-64
2022/10/27 07:37:44;;;;;;;33.03;16.77;;;31.90;99.90;;;;;;5015467;28;20022;-61
2022/10/27 07:40:12;;;;;;;27.50;14.45;;;31.90;99.90;;;;;;5015814;28;20077;-63
2022/10/27 07:42:52;;;;;;;38.38;23.25;;;31.50;99.90;;;;;;5011543;28;20049;-67
2022/10/27 07:45:21;;;;;;;31.63;23.50;;;31.20;99.90;;;;;;5014210;28;20021;-62
2022/10/27 07:47:49;;;;;;;39.20;23.92;;;30.90;99.90;;;;;;5016664;28;20026;-62
2022/10/27 07:50:20;;;;;;;44.92;31.58;;;30.90;99.90;;;;;;5014827;28;20022;-63
2022/10/27 07:52:49;;;;;;;73.40;43.63;;;30.90;99.90;;;;;;5012734;28;20025;-62
2022/10/27 07:55:19;;;;;;;46.25;27.48;;;31.00;99.90;;;;;;5013096;28;20437;-66
2022/10/27 07:57:45;;;;;;;37.03;17.40;;;30.90;99.90;;;;;;5012009;28;20033;-63
2022/10/27 08:00:15;;;;;;;124.13;84.13;;;31.00;99.90;;;;;;5013294;28;20022;-64
2022/10/27 08:02:43;;;;;;;26.15;17.45;;;31.00;99.90;;;;;;5012651;28;20083;-62
2022/10/27 08:05:12;;;;;;;273.95;161.73;;;31.10;99.90;;;;;;5013335;28;20523;-62
2022/10/27 08:07:41;;;;;;;102.05;71.38;;;31.20;99.90;;;;;;5015585;28;20108;-63
2022/10/27 08:10:09;;;;;;;70.90;41.00;;;31.30;99.90;;;;;;5015532;28;20028;-64
2022/10/27 08:12:40;;;;;;;70.80;51.97;;;31.40;99.90;;;;;;5014976;28;20068;-63
2022/10/27 08:15:08;;;;;;;44.03;29.73;;;31.40;99.90;;;;;;5012448;28;20029;-62
2022/10/27 08:17:35;;;;;;;47.38;32.63;;;31.50;99.90;;;;;;5014186;28;20030;-62
2022/10/27 08:20:01;;;;;;;44.70;29.73;;;31.50;99.90;;;;;;5013766;28;20026;-63
2022/10/27 08:22:28;;;;;;;101.00;71.28;;;31.50;99.90;;;;;;5014360;28;20022;-63
2022/10/27 08:24:54;;;;;;;31.90;17.98;;;31.60;99.90;;;;;;5014450;28;20018;-63
2022/10/27 08:27:21;;;;;;;15.32;9.73;;;31.60;99.90;;;;;;5007958;28;20037;-58
2022/10/27 08:29:47;;;;;;;13.63;10.63;;;31.60;99.90;;;;;;5011719;28;20625;-62
2022/10/27 08:32:15;;;;;;;38.30;22.92;;;31.60;99.90;;;;;;5014713;28;20511;-62
2022/10/27 08:34:41;;;;;;;30.25;18.17;;;31.50;99.90;;;;;;5012190;28;20048;-61
2022/10/27 08:37:08;;;;;;;41.53;29.30;;;31.50;99.90;;;;;;5012420;28;20030;-63
2022/10/27 08:39:34;;;;;;;58.65;45.08;;;31.40;99.90;;;;;;5014381;28;20054;-64
2022/10/27 08:42:14;;;;;;;60.92;48.65;;;31.40;99.90;;;;;;5011759;28;20105;-62
2022/10/27 08:44:49;;;;;;;35.70;27.90;;;31.40;99.90;;;;;;5011005;28;20349;-63
2022/10/27 08:47:27;;;;;;;42.10;30.05;;;31.30;99.90;;;;;;5013935;28;20021;-64
2022/10/27 08:50:17;;;;;;;32.63;23.88;;;31.20;99.90;;;;;;5013133;28;20025;-61
2022/10/27 08:52:47;;;;;;;86.53;68.28;;;31.20;99.90;;;;;;5014207;28;20102;-61
2022/10/27 08:55:14;;;;;;;42.72;28.23;;;31.30;99.90;;;;;;5013817;28;20030;-61
2022/10/27 08:58:07;;;;;;;79.80;63.10;;;31.30;99.90;;;;;;5012673;28;20018;-58
2022/10/27 09:01:00;;;;;;;48.45;37.83;;;31.20;99.90;;;;;;4972007;28;20070;-61
2022/10/27 09:03:54;;;;;;;56.08;44.88;;;31.20;99.90;;;;;;4972500;28;20065;-63
2022/10/27 09:06:35;;;;;;;61.47;47.92;;;31.10;99.90;;;;;;4971131;28;20026;-64
2022/10/27 09:09:24;;;;;;;91.65;66.93;;;31.10;99.90;;;;;;4971268;28;20037;-64
2022/10/27 09:11:52;;;;;;;63.22;51.05;;;31.10;99.90;;;;;;4913436;29;20048;-62
2022/10/27 09:14:40;;;;;;;80.15;65.90;;;31.10;99.90;;;;;;4913498;29;20061;-64
2022/10/27 09:17:15;;;;;;;136.25;107.43;;;31.00;99.90;;;;;;4914246;29;20040;-64
2022/10/27 09:19:49;;;;;;;138.40;106.50;;;30.90;99.90;;;;;;4913747;29;20039;-65
2022/10/27 09:22:19;;;;;;;114.38;73.88;;;31.00;99.90;;;;;;4913987;29;20042;-65
2022/10/27 09:24:57;;;;;;;100.57;65.65;;;30.90;99.90;;;;;;4913429;29;20578;-62
2022/10/27 09:27:24;;;;;;;89.18;62.05;;;30.80;99.90;;;;;;4911787;29;20055;-62
2022/10/27 09:29:53;;;;;;;79.13;51.83;;;30.80;99.90;;;;;;4913789;29;20064;-63
2022/10/27 09:32:25;;;;;;;89.75;63.47;;;30.50;99.90;;;;;;4952278;28;20030;-63
2022/10/27 09:35:08;;;;;;;68.57;49.08;;;30.40;99.90;;;;;;4951702;29;20054;-63
2022/10/27 09:37:39;;;;;;;70.53;53.72;;;30.30;99.90;;;;;;4950905;29;20035;-62
2022/10/27 09:40:18;;;;;;;65.78;51.53;;;30.30;99.90;;;;;;4952477;29;20067;-63
2022/10/27 09:42:47;;;;;;;48.30;36.28;;;30.30;99.90;;;;;;4948070;29;20039;-65
2022/10/27 09:45:16;;;;;;;57.05;36.47;;;30.30;99.90;;;;;;4952211;29;20027;-65
2022/10/27 09:47:45;;;;;;;58.58;36.03;;;30.10;99.90;;;;;;4953195;28;20096;-63
2022/10/27 09:50:17;;;;;;;65.38;45.20;;;30.00;99.90;;;;;;5013137;28;20022;-63
2022/10/27 09:52:44;;;;;;;87.93;57.05;;;30.00;99.90;;;;;;5010487;28;20467;-63
2022/10/27 09:55:11;;;;;;;71.18;44.53;;;29.90;99.90;;;;;;5012999;28;20490;-64
2022/10/27 09:57:40;;;;;;;62.20;43.17;;;30.00;99.90;;;;;;5011866;28;20014;-65
2022/10/27 10:00:23;;;;;;;56.78;40.83;;;30.00;99.90;;;;;;5010434;28;20478;-63
2022/10/27 10:03:05;;;;;;;79.88;52.33;;;29.90;99.90;;;;;;5010425;28;20108;-63
2022/10/27 10:05:36;;;;;;;227.15;137.15;;;30.00;99.90;;;;;;5012070;28;20061;-65
2022/10/27 10:08:23;;;;;;;179.10;101.47;;;30.00;99.90;;;;;;5011805;28;20053;-61
2022/10/27 10:10:57;;;;;;;218.63;148.20;;;29.90;99.90;;;;;;5011829;28;20021;-64
2022/10/27 10:13:25;;;;;;;84.22;55.97;;;29.90;99.90;;;;;;5009193;28;20048;-61
2022/10/27 10:16:14;;;;;;;119.22;71.60;;;30.00;99.90;;;;;;5010307;28;20101;-63
2022/10/27 10:18:45;;;;;;;71.65;46.97;;;29.90;99.90;;;;;;5011886;28;20033;-62
2022/10/27 10:21:13;;;;;;;76.57;49.95;;;29.90;99.90;;;;;;5011675;28;20041;-63
2022/10/27 10:23:50;;;;;;;84.25;60.83;;;29.90;99.90;;;;;;5011592;28;20034;-65
2022/10/27 10:26:20;;;;;;;76.60;50.35;;;29.90;99.90;;;;;;5015962;28;20030;-61
2022/10/27 10:28:51;;;;;;;293.13;179.45;;;29.90;99.90;;;;;;5015993;28;20022;-63
2022/10/27 10:31:25;;;;;;;59.78;44.40;;;29.80;99.90;;;;;;5015919;28;20018;-63
2022/10/27 10:33:58;;;;;;;93.88;60.00;;;29.80;99.90;;;;;;5015760;28;20050;-63
2022/10/27 10:36:26;;;;;;;146.10;105.15;;;29.70;99.90;;;;;;5013259;28;20056;-64
2022/10/27 10:38:58;;;;;;;111.55;70.90;;;29.50;99.90;;;;;;5015898;28;20110;-63
2022/10/27 10:41:26;;;;;;;86.57;58.53;;;29.60;99.90;;;;;;5015293;28;20085;-63
2022/10/27 10:44:15;;;;;;;96.20;60.53;;;29.70;99.90;;;;;;5015242;28;20049;-64
2022/10/27 10:46:59;;;;;;;80.50;54.15;;;29.70;99.90;;;;;;5013547;28;20049;-65
2022/10/27 10:49:30;;;;;;;85.22;56.33;;;29.50;99.90;;;;;;5013434;28;20475;-63
2022/10/27 10:52:00;;;;;;;77.15;53.28;;;29.50;99.90;;;;;;5013077;28;20117;-64
2022/10/27 10:54:33;;;;;;;77.45;52.92;;;29.50;99.90;;;;;;5012395;28;20418;-64
2022/10/27 10:57:00;;;;;;;78.38;54.53;;;29.40;99.90;;;;;;5012947;28;20021;-63
2022/10/27 10:59:29;;;;;;;81.85;56.60;;;29.50;99.90;;;;;;5013064;28;20065;-64
2022/10/27 11:02:24;;;;;;;88.88;60.15;;;29.50;99.90;;;;;;5014346;28;20061;-63
2022/10/27 11:04:52;;;;;;;85.20;56.75;;;29.50;99.90;;;;;;4953678;29;20071;-64
2022/10/27 11:07:31;;;;;;;88.05;55.72;;;29.50;99.90;;;;;;4953261;29;20038;-64
2022/10/27 11:09:57;;;;;;;93.63;54.97;;;29.40;99.90;;;;;;4953688;29;20114;-62
2022/10/27 11:12:31;;;;;;;83.72;53.30;;;29.50;99.90;;;;;;4953372;29;20086;-63
2022/10/27 11:15:20;;;;;;;79.70;54.53;;;29.60;99.90;;;;;;4953554;29;20031;-65
2022/10/27 11:17:50;;;;;;;82.78;54.97;;;29.50;99.90;;;;;;4934296;29;20040;-64
2022/10/27 11:20:37;;;;;;;92.00;58.65;;;29.50;99.90;;;;;;4934450;29;20080;-63
2022/10/27 11:23:14;;;;;;;91.45;62.72;;;29.50;99.90;;;;;;4935219;29;20059;-64
2022/10/27 11:25:41;;;;;;;118.38;70.68;;;29.50;99.90;;;;;;4935073;29;20521;-63
2022/10/27 11:28:15;;;;;;;100.53;69.68;;;29.50;99.90;;;;;;4934771;29;20051;-63
2022/10/27 11:30:51;;;;;;;92.60;61.72;;;29.40;99.90;;;;;;4934495;29;20040;-64
2022/10/27 11:33:37;;;;;;;91.53;58.97;;;29.40;99.90;;;;;;4934762;29;20093;-67
2022/10/27 11:36:15;;;;;;;96.65;60.72;;;29.40;99.90;;;;;;4896998;29;20506;-65
2022/10/27 11:39:02;;;;;;;98.20;60.36;;;29.40;99.90;;;;;;4817774;29;2337365;-64
2022/10/27 11:41:43;;;;;;;89.40;56.55;;;29.50;99.90;;;;;;4954654;29;20050;-63
2022/10/27 11:44:19;;;;;;;89.70;60.92;;;29.40;99.90;;;;;;4954810;29;20031;-63
2022/10/27 11:46:56;;;;;;;84.85;58.25;;;29.30;99.90;;;;;;4954828;29;20193;-63
2022/10/27 11:49:37;;;;;;;94.80;60.70;;;29.30;99.90;;;;;;4937754;29;20045;-63
2022/10/27 11:52:20;;;;;;;86.68;55.95;;;29.30;99.90;;;;;;4935734;29;20501;-63
2022/10/27 11:54:46;;;;;;;;;;;29.30;99.90;;;;;;4936144;29;20532;-63
2022/10/27 11:57:22;;;;;;;71.40;46.50;;;29.20;99.90;;;;;;4935515;29;19906;-63
2022/10/27 12:00:05;;;;;;;68.18;46.00;;;29.20;99.90;;;;;;4935582;29;20151;-63
2022/10/27 12:02:51;;;;;;;66.75;43.88;;;29.20;99.90;;;;;;4935428;28;20111;-63
2022/10/27 12:05:28;;;;;;;90.10;64.15;;;29.10;99.90;;;;;;4935369;29;20036;-63
2022/10/27 12:08:35;;;;;;;223.43;164.88;;;29.10;99.90;;;;;;4935232;29;20460;-63
2022/10/27 12:11:41;;;;;;;141.90;99.00;;;29.20;99.90;;;;;;4934497;29;20040;-62
2022/10/27 12:14:10;;;;;;;130.40;93.60;;;29.30;99.90;;;;;;4935205;29;20111;-63
2022/10/27 12:16:42;;;;;;;108.80;74.22;;;29.40;99.90;;;;;;4935138;29;20127;-63
2022/10/27 12:19:33;;;;;;;102.72;70.05;;;29.40;99.90;;;;;;4935136;29;20618;-63
2022/10/27 12:22:18;;;;;;;110.97;67.35;;;29.40;99.90;;;;;;4934962;29;20521;-63
2022/10/27 12:25:02;;;;;;;111.18;72.47;;;29.40;99.90;;;;;;4934926;29;20031;-63
2022/10/27 12:27:31;;;;;;;117.38;70.28;;;29.40;99.90;;;;;;4935123;29;20028;-63
2022/10/27 12:30:17;;;;;;;111.95;70.10;;;29.30;99.90;;;;;;4934835;29;20027;-63
2022/10/27 12:32:49;;;;;;;117.97;79.15;;;29.20;99.90;;;;;;4992412;28;20035;-63
2022/10/27 12:35:40;;;;;;;124.38;82.32;;;29.20;99.90;;;;;;4992434;28;20038;-65
2022/10/27 12:38:44;;;;;;;123.65;81.88;;;29.20;99.90;;;;;;4953224;29;20031;-64
2022/10/27 12:41:28;;;;;;;117.78;73.85;;;29.10;99.90;;;;;;4895294;29;20492;-63
2022/10/27 12:44:01;;;;;;;109.57;69.18;;;29.10;99.90;;;;;;4890826;29;20128;-64
2022/10/27 12:46:48;;;;;;;113.45;66.55;;;29.10;99.90;;;;;;4877600;29;20040;-64
2022/10/27 12:49:54;;;;;;;111.70;69.85;;;29.10;99.90;;;;;;4877962;29;20041;-63